Bawcomville, Louisiana
Current Conditions -  °F | °C
As of 8:53 AM on Friday 19 Dec 2014 (Local Time) from KMLU Reporting Station
Light Rain Light Rain  
Wind Chill: 44°   Ceiling: 2900
Heat Index: 47°   Visibility: 3mi
Dew Point: 45°   Wind: 6mph
Humidity: 93%   Direction: 30°NNE
Pressure: 30.23"   Gusts: NA
Location:  32.3932°N, 92.2204°W
Report Text: KMLU 191453Z 03005KT 3SM -RA BR OVC029 08/07 A3023 RMK AO2 SLP235 P0002 60003 T00830072 53029
Loading
Personal Weather Stations






























Interactive Weather Map New forecast layout! Learn more

10-Day Weather Forecast

Advertisements
Track Severe Weather on mobile